Time;durP1;ratioP1;P1;durP2;ratioP2;P2;SDS_P1;SDS_P2;PMS_P1;PMS_P2;Temp;Humidity;BMP_temperature;BMP_pressure;BME280_temperature;BME280_humidity;BME280_pressure;Samples;Min_cycle;Max_cycle;Signal;HPM_P1;HPM_P2
2023/04/24 00:00:40;;;;;;;;;;;;;;;11.89;48.65;99667.88;108942;1260;62078;-74
2023/04/24 00:03:07;;;;;;;;;;;;;;;11.72;50.34;99670.17;108786;1260;75665;-74
2023/04/24 00:05:34;;;;;;;;;;;;;;;11.50;51.15;99676.17;108925;1260;66054;-74
2023/04/24 00:08:02;;;;;;;;;;;;;;;11.33;51.73;99676.21;108851;1260;72530;-74
2023/04/24 00:10:30;;;;;;;;;;;;;;;11.21;52.10;99672.06;108918;1260;62654;-75
2023/04/24 00:12:57;;;;;;;;;;;;;;;11.15;52.39;99669.59;108934;1260;61148;-74
2023/04/24 00:15:24;;;;;;;;;;;;;;;11.10;52.60;99671.20;108851;1260;75710;-75
2023/04/24 00:17:53;;;;;;;;;;;;;;;11.07;52.87;99671.23;108945;1259;66463;-76
2023/04/24 00:20:21;;;;;;;;;;;;;;;11.02;53.32;99672.14;108929;1261;75340;-74
2023/04/24 00:22:47;;;;;;;;;;;;;;;10.96;53.58;99674.61;108904;1260;61152;-75
2023/04/24 00:25:14;;;;;;;;;;;;;;;10.91;53.74;99672.02;108936;1260;61700;-75
2023/04/24 00:27:41;;;;;;;;;;;;;;;10.89;53.76;99673.61;108863;1260;75844;-74
2023/04/24 00:30:08;;;;;;;;;;;;;;;10.87;54.26;99670.91;108951;1259;66867;-75
2023/04/24 00:32:35;;;;;;;;;;;;;;;10.81;54.66;99673.31;108919;1260;72781;-75
2023/04/24 00:35:03;;;;;;;;;;;;;;;10.71;55.08;99669.52;108976;1261;59599;-74
2023/04/24 00:37:30;;;;;;;;;;;;;;;10.65;55.27;99667.46;108928;1260;62368;-75
2023/04/24 00:39:57;;;;;;;;;;;;;;;10.62;55.37;99665.98;108955;1260;74565;-74
2023/04/24 00:42:24;;;;;;;;;;;;;;;10.60;55.67;99666.97;108925;1260;70470;-74
2023/04/24 00:44:51;;;;;;;;;;;;;;;10.60;55.64;99666.17;108860;1260;75014;-75
2023/04/24 00:47:19;;;;;;;;;;;;;;;10.60;55.71;99668.20;108853;1264;58853;-74
2023/04/24 00:49:48;;;;;;;;;;;;;;;10.60;55.80;99667.67;108888;1260;60010;-75
2023/04/24 00:52:17;;;;;;;;;;;;;;;10.60;55.92;99671.21;108872;1263;72707;-74
2023/04/24 00:54:47;;;;;;;;;;;;;;;10.61;55.81;99666.70;108901;1260;69519;-75
2023/04/24 00:57:15;;;;;;;;;;;;;;;10.61;56.38;99668.48;108774;1260;74687;-75
2023/04/24 00:59:43;;;;;;;;;;;;;;;10.58;56.83;99669.00;108855;1261;59366;-74
2023/04/24 01:02:12;;;;;;;;;;;;;;;10.55;56.97;99668.36;108853;1261;59350;-75
2023/04/24 01:04:41;;;;;;;;;;;;;;;10.53;57.22;99667.23;108869;1260;72911;-74
2023/04/24 01:07:11;;;;;;;;;;;;;;;10.52;56.61;99667.58;108889;1260;70399;-74
2023/04/24 01:09:43;;;;;;;;;;;;;;;10.53;56.34;99668.92;108444;1260;581884;-74
2023/04/24 01:12:12;;;;;;;;;;;;;;;10.53;56.50;99671.73;108909;1260;60801;-74
2023/04/24 01:14:41;;;;;;;;;;;;;;;10.52;56.75;99669.15;108881;1260;60863;-74
2023/04/24 01:17:10;;;;;;;;;;;;;;;10.50;57.20;99667.39;108843;1265;75809;-74
2023/04/24 01:19:39;;;;;;;;;;;;;;;10.47;57.31;99662.66;108887;1260;67865;-74
2023/04/24 01:22:15;;;;;;;;;;;;;;;10.45;57.76;99659.73;108818;1261;74934;-74
2023/04/24 01:24:44;;;;;;;;;;;;;;;10.42;57.98;99657.06;108833;1260;59530;-75
2023/04/24 01:27:12;;;;;;;;;;;;;;;10.41;58.26;99660.11;108804;1260;61373;-75
2023/04/24 01:29:41;;;;;;;;;;;;;;;10.39;58.58;99663.65;108931;1260;75754;-74
2023/04/24 01:32:16;;;;;;;;;;;;;;;10.33;58.83;99664.00;108889;1260;70230;-73
2023/04/24 01:34:45;;;;;;;;;;;;;;;10.28;59.17;99664.48;108902;1260;72233;-75
2023/04/24 01:37:14;;;;;;;;;;;;;;;10.21;59.59;99663.51;108781;1262;62200;-74
2023/04/24 01:39:43;;;;;;;;;;;;;;;10.17;59.73;99665.48;108946;1261;58993;-75
2023/04/24 01:42:14;;;;;;;;;;;;;;;10.13;59.91;99662.17;108935;1261;74732;-73
2023/04/24 01:44:44;;;;;;;;;;;;;;;10.13;59.86;99658.03;108786;1260;70059;-74
2023/04/24 01:47:14;;;;;;;;;;;;;;;10.14;59.79;99657.18;108874;1260;72713;-73
2023/04/24 01:49:44;;;;;;;;;;;;;;;10.15;59.64;99652.59;108895;1260;62683;-74
2023/04/24 01:52:13;;;;;;;;;;;;;;;10.15;59.46;99655.14;108771;1260;59052;-73
2023/04/24 01:54:43;;;;;;;;;;;;;;;10.17;59.07;99650.98;108941;1260;73697;-73
2023/04/24 01:57:12;;;;;;;;;;;;;;;10.18;58.83;99648.74;108929;1260;67402;-74
2023/04/24 02:07:25;;;;;;;;;;;;;;;10.23;58.56;99645.86;102585;1298;599537;-73
2023/04/24 02:09:52;;;;;;;;;;;;;;;10.19;58.45;99641.98;104938;1273;59517;-73
2023/04/24 02:12:19;;;;;;;;;;;;;;;10.18;58.56;99640.20;105384;1264;62696;-73
2023/04/24 02:14:46;;;;;;;;;;;;;;;10.16;58.41;99637.49;105223;1264;72511;-75
2023/04/24 02:17:13;;;;;;;;;;;;;;;10.14;58.50;99638.23;105307;1263;68356;-74
2023/04/24 02:19:40;;;;;;;;;;;;;;;10.12;58.95;99642.17;105340;1267;73920;-74
2023/04/24 02:22:10;;;;;;;;;;;;;;;10.08;59.32;99633.38;105076;1260;638940;-74
2023/04/24 02:24:37;;;;;;;;;;;;;;;10.05;59.10;99631.45;105554;1261;60800;-74
2023/04/24 02:27:06;;;;;;;;;;;;;;;10.03;59.04;99633.94;105527;1260;73667;-74
2023/04/24 02:29:33;;;;;;;;;;;;;;;10.01;58.86;99630.09;105486;1261;67531;-73
2023/04/24 02:32:00;;;;;;;;;;;;;;;9.98;58.76;99629.03;105610;1261;75329;-72
2023/04/24 02:34:26;;;;;;;;;;;;;;;9.95;58.86;99630.02;105634;1258;62468;-73
2023/04/24 02:36:56;;;;;;;;;;;;;;;9.94;58.78;99632.29;105510;1257;62642;-72
2023/04/24 02:39:23;;;;;;;;;;;;;;;9.91;59.03;99635.86;105701;1261;75789;-73
2023/04/24 02:41:52;;;;;;;;;;;;;;;9.87;59.32;99639.29;105478;1260;69065;-73
2023/04/24 02:44:18;;;;;;;;;;;;;;;9.83;59.37;99636.82;105389;1261;74120;-74
2023/04/24 02:46:45;;;;;;;;;;;;;;;9.80;59.76;99638.11;105654;1261;63305;-76
2023/04/24 02:49:12;;;;;;;;;;;;;;;9.76;59.38;99639.54;105581;1260;62771;-74
2023/04/24 02:51:41;;;;;;;;;;;;;;;9.73;58.33;99637.14;105592;1261;72684;-78
2023/04/24 02:54:09;;;;;;;;;;;;;;;9.71;58.21;99630.40;105480;1265;68542;-74
2023/04/24 02:56:36;;;;;;;;;;;;;;;9.70;59.08;99632.30;105628;1258;75119;-76
2023/04/24 02:59:03;;;;;;;;;;;;;;;9.67;59.14;99632.76;105579;1260;60335;-75
2023/04/24 03:01:30;;;;;;;;;;;;;;;9.64;58.39;99627.13;105349;1267;60549;-74
2023/04/24 03:03:57;;;;;;;;;;;;;;;9.64;58.13;99629.44;105499;1260;73299;-75
2023/04/24 03:06:26;;;;;;;;;;;;;;;9.62;57.25;99626.41;105608;1258;69196;-74
2023/04/24 03:08:54;;;;;;;;;;;;;;;9.63;56.75;99625.08;105601;1259;75715;-73
2023/04/24 03:11:21;;;;;;;;;;;;;;;9.63;57.40;99629.05;105367;1260;59675;-72
2023/04/24 03:13:48;;;;;;;;;;;;;;;9.62;57.57;99625.77;105461;1260;60785;-74
2023/04/24 03:16:14;;;;;;;;;;;;;;;9.62;56.65;99627.42;105612;1263;72302;-73
2023/04/24 03:18:41;;;;;;;;;;;;;;;9.62;56.71;99625.65;105423;1266;67455;-74
2023/04/24 03:21:08;;;;;;;;;;;;;;;9.61;57.23;99626.81;105398;1267;72705;-76
2023/04/24 03:23:35;;;;;;;;;;;;;;;9.61;57.70;99625.45;105519;1265;59750;-74
2023/04/24 03:26:02;;;;;;;;;;;;;;;9.56;58.78;99630.07;105539;1257;61499;-73
2023/04/24 03:28:30;;;;;;;;;;;;;;;9.48;59.26;99626.34;105533;1264;75557;-74
2023/04/24 03:30:59;;;;;;;;;;;;;;;9.43;59.04;99634.63;105450;1260;69660;-74
2023/04/24 03:33:29;;;;;;;;;;;;;;;9.36;60.23;99641.33;105387;1263;73536;-73
2023/04/24 03:35:59;;;;;;;;;;;;;;;9.28;60.50;99641.09;105333;1265;62281;-75
2023/04/24 03:38:28;;;;;;;;;;;;;;;9.22;61.04;99637.34;105297;1267;59686;-73
2023/04/24 03:41:00;;;;;;;;;;;;;;;9.19;61.37;99638.00;105508;1260;72579;-75
2023/04/24 03:43:35;;;;;;;;;;;;;;;9.18;62.00;99639.80;105477;1260;67155;-74
2023/04/24 03:46:02;;;;;;;;;;;;;;;9.16;62.51;99640.29;105387;1261;75565;-74
2023/04/24 03:48:30;;;;;;;;;;;;;;;9.16;62.68;99642.70;105511;1261;60386;-73
2023/04/24 03:50:58;;;;;;;;;;;;;;;9.15;63.15;99645.96;105412;1266;61058;-72
2023/04/24 03:53:26;;;;;;;;;;;;;;;9.12;63.64;99646.98;105277;1260;75720;-73
2023/04/24 03:55:53;;;;;;;;;;;;;;;9.09;63.68;99649.99;105457;1260;69078;-76
2023/04/24 03:58:20;;;;;;;;;;;;;;;9.05;64.35;99650.95;105355;1260;75051;-76
2023/04/24 04:00:48;;;;;;;;;;;;;;;9.03;64.58;99649.39;105374;1264;61745;-75
2023/04/24 04:03:50;;;;;;;;;;;;;;;9.03;64.50;99650.79;105339;1264;61556;-74
2023/04/24 04:06:21;;;;;;;;;;;;;;;9.04;64.73;99652.53;105317;1260;75387;-75
2023/04/24 04:08:49;;;;;;;;;;;;;;;9.05;64.67;99648.69;105508;1265;69529;-74
2023/04/24 04:11:15;;;;;;;;;;;;;;;9.06;64.68;99650.58;104747;1260;1003075;-74
2023/04/24 04:13:44;;;;;;;;;;;;;;;9.07;64.91;99650.53;105535;1264;62134;-71
2023/04/24 04:16:11;;;;;;;;;;;;;;;9.08;65.11;99649.64;105693;1257;59852;-74
2023/04/24 04:18:38;;;;;;;;;;;;;;;9.09;64.91;99651.27;105569;1257;73221;-74
2023/04/24 04:21:05;;;;;;;;;;;;;;;9.10;65.06;99652.05;105683;1262;68903;-74
2023/04/24 04:23:32;;;;;;;;;;;;;;;9.11;65.32;99653.57;105711;1262;75456;-75
2023/04/24 04:26:04;;;;;;;;;;;;;;;9.12;65.05;99653.16;105562;1260;60951;-74
2023/04/24 04:28:55;;;;;;;;;;;;;;;9.16;64.93;99653.59;105684;1260;61327;-74
2023/04/24 04:31:23;;;;;;;;;;;;;;;9.18;64.84;99652.52;105671;1260;75448;-75
2023/04/24 04:33:50;;;;;;;;;;;;;;;9.22;64.18;99655.68;105721;1260;68597;-74
2023/04/24 04:36:17;;;;;;;;;;;;;;;9.25;63.97;99656.19;105543;1261;72010;-73
2023/04/24 04:38:48;;;;;;;;;;;;;;;9.29;64.44;99662.79;105494;1261;59775;-74
2023/04/24 04:41:35;;;;;;;;;;;;;;;9.30;64.66;99660.94;105473;1258;62306;-75
2023/04/24 04:44:04;;;;;;;;;;;;;;;9.33;63.85;99665.17;105663;1260;75731;-76
2023/04/24 04:46:36;;;;;;;;;;;;;;;9.39;63.83;99663.13;105554;1262;69947;-77
2023/04/24 04:49:23;;;;;;;;;;;;;;;9.45;63.27;99664.25;105577;1257;73528;-77
2023/04/24 04:51:50;;;;;;;;;;;;;;;9.52;62.90;99665.87;105355;1264;61110;-79
2023/04/24 04:54:18;;;;;;;;;;;;;;;9.59;62.41;99664.33;105466;1264;60758;-74
2023/04/24 04:56:45;;;;;;;;;;;;;;;9.69;62.25;99666.77;105624;1263;74090;-75
2023/04/24 04:59:12;;;;;;;;;;;;;;;9.77;62.06;99663.02;105673;1263;70358;-73
2023/04/24 05:01:45;;;;;;;;;;;;;;;9.84;61.37;99661.15;105618;1257;72778;-78
2023/04/24 05:04:12;;;;;;;;;;;;;;;9.93;61.33;99656.58;105723;1258;61905;-75
2023/04/24 05:06:40;;;;;;;;;;;;;;;10.01;61.41;99655.45;105709;1257;60841;-73
2023/04/24 05:09:07;;;;;;;;;;;;;;;10.09;61.03;99652.77;105774;1257;74612;-73
2023/04/24 05:11:41;;;;;;;;;;;;;;;10.17;60.80;99648.89;105539;1265;68679;-77
2023/04/24 05:14:08;;;;;;;;;;;;;;;10.25;60.76;99649.95;105615;1256;76112;-77
2023/04/24 05:16:37;;;;;;;;;;;;;;;10.33;60.35;99650.55;105715;1260;61941;-75
2023/04/24 05:19:05;;;;;;;;;;;;;;;10.42;59.93;99650.83;105757;1259;61024;-73
2023/04/24 05:21:35;;;;;;;;;;;;;;;10.52;59.99;99653.59;105778;1258;72545;-73
2023/04/24 05:24:02;;;;;;;;;;;;;;;10.62;59.71;99648.54;105654;1262;67937;-73
2023/04/24 05:26:56;;;;;;;;;;;;;;;10.72;59.65;99647.55;105745;1261;73412;-76
2023/04/24 05:29:27;;;;;;;;;;;;;;;10.83;59.77;99648.05;105912;1257;59753;-76
2023/04/24 05:31:54;;;;;;;;;;;;;;;10.98;59.37;99644.76;105593;1264;60619;-73
2023/04/24 05:34:21;;;;;;;;;;;;;;;11.10;58.77;99649.02;105700;1257;76002;-74
2023/04/24 05:36:51;;;;;;;;;;;;;;;11.20;58.52;99651.60;105600;1257;68431;-74
2023/04/24 05:39:19;;;;;;;;;;;;;;;11.34;59.08;99652.11;105591;1257;75434;-73
2023/04/24 05:41:46;;;;;;;;;;;;;;;11.47;59.25;99652.05;105715;1261;62684;-75
2023/04/24 05:44:13;;;;;;;;;;;;;;;11.60;59.26;99651.58;105654;1260;62988;-75
2023/04/24 05:46:41;;;;;;;;;;;;;;;11.70;59.47;99648.64;105682;1255;72263;-77
2023/04/24 05:49:09;;;;;;;;;;;;;;;11.80;59.80;99648.30;105797;1257;69366;-74
2023/04/24 05:51:36;;;;;;;;;;;;;;;11.89;59.99;99645.52;105378;1257;75478;-76
2023/04/24 05:54:03;;;;;;;;;;;;;;;12.01;60.03;99643.98;105465;1263;59957;-75
2023/04/24 05:56:30;;;;;;;;;;;;;;;12.12;59.83;99642.80;105498;1263;61217;-74
2023/04/24 05:58:58;;;;;;;;;;;;;;;12.22;59.55;99642.48;105653;1262;75531;-73
2023/04/24 06:01:25;;;;;;;;;;;;;;;12.32;59.17;99644.27;105558;1257;69085;-75
2023/04/24 06:03:58;;;;;;;;;;;;;;;12.42;59.11;99640.59;105594;1257;72315;-76
2023/04/24 06:06:25;;;;;;;;;;;;;;;12.52;59.09;99638.09;105618;1256;63656;-76
2023/04/24 06:08:54;;;;;;;;;;;;;;;12.62;58.62;99635.77;105738;1257;62563;-77
2023/04/24 06:11:21;;;;;;;;;;;;;;;12.74;58.70;99630.89;105731;1257;74627;-77
2023/04/24 06:13:48;;;;;;;;;;;;;;;12.87;58.37;99635.41;105733;1260;69240;-75
2023/04/24 06:16:38;;;;;;;;;;;;;;;13.02;57.77;99631.55;105557;1257;74911;-75
2023/04/24 06:19:15;;;;;;;;;;;;;;;13.14;57.61;99629.82;105730;1260;61715;-75
2023/04/24 06:21:42;;;;;;;;;;;;;;;13.26;56.84;99632.81;105704;1255;60399;-75
2023/04/24 06:24:09;;;;;;;;;;;;;;;13.41;56.18;99632.86;105407;1257;77147;-73
2023/04/24 06:26:36;;;;;;;;;;;;;;;13.54;55.24;99630.87;105693;1256;69261;-74
2023/04/24 06:29:03;;;;;;;;;;;;;;;13.67;54.22;99632.70;105630;1257;75080;-75
2023/04/24 06:31:30;;;;;;;;;;;;;;;13.80;53.63;99636.98;105632;1257;62581;-75
2023/04/24 06:33:57;;;;;;;;;;;;;;;13.92;53.17;99638.52;105471;1256;61953;-74
2023/04/24 06:36:24;;;;;;;;;;;;;;;14.03;52.51;99640.06;105618;1259;76488;-74
2023/04/24 06:38:50;;;;;;;;;;;;;;;14.14;52.11;99639.95;105671;1257;70630;-77
2023/04/24 06:41:17;;;;;;;;;;;;;;;14.23;51.82;99638.99;105431;1257;72955;-76
2023/04/24 06:43:45;;;;;;;;;;;;;;;14.33;50.62;99640.00;105635;1260;62006;-76
2023/04/24 06:46:12;;;;;;;;;;;;;;;14.47;49.66;99638.84;105722;1261;62630;-78
2023/04/24 06:48:39;;;;;;;;;;;;;;;14.57;48.95;99639.34;105577;1257;76530;-75
2023/04/24 06:51:06;;;;;;;;;;;;;;;14.66;47.86;99639.52;105656;1256;67281;-77
2023/04/24 06:53:33;;;;;;;;;;;;;;;14.80;46.64;99642.22;105552;1257;75189;-75
2023/04/24 06:56:00;;;;;;;;;;;;;;;14.96;45.56;99640.50;105529;1257;63138;-74
2023/04/24 06:58:27;;;;;;;;;;;;;;;15.10;45.05;99641.56;105537;1257;62471;-75
2023/04/24 07:00:54;;;;;;;;;;;;;;;15.21;44.99;99640.30;105770;1256;75657;-73
2023/04/24 07:03:21;;;;;;;;;;;;;;;15.33;43.93;99642.81;105797;1260;67787;-76
2023/04/24 07:05:49;;;;;;;;;;;;;;;15.49;42.91;99639.95;105853;1257;72912;-74
2023/04/24 07:08:17;;;;;;;;;;;;;;;15.63;41.95;99638.48;105525;1257;63332;-75
2023/04/24 07:10:44;;;;;;;;;;;;;;;15.77;40.93;99641.20;105505;1256;63267;-77
2023/04/24 07:13:11;;;;;;;;;;;;;;;15.88;40.47;99643.42;105684;1260;76310;-72
2023/04/24 07:15:39;;;;;;;;;;;;;;;15.96;40.15;99640.19;105671;1257;68356;-74
2023/04/24 07:18:06;;;;;;;;;;;;;;;16.05;39.59;99640.59;105637;1257;73309;-74
2023/04/24 07:20:33;;;;;;;;;;;;;;;16.11;38.86;99637.98;105701;1257;62472;-75
2023/04/24 07:23:01;;;;;;;;;;;;;;;16.18;38.00;99638.51;105568;1256;62443;-73
2023/04/24 07:25:27;;;;;;;;;;;;;;;16.27;37.87;99639.39;105668;1261;76294;-77
2023/04/24 07:27:54;;;;;;;;;;;;;;;16.35;37.46;99640.48;105564;1262;69653;-77
2023/04/24 07:30:21;;;;;;;;;;;;;;;16.44;36.63;99640.60;105483;1257;73776;-77
2023/04/24 07:32:49;;;;;;;;;;;;;;;16.49;36.63;99640.05;105363;1256;62073;-79
2023/04/24 07:35:16;;;;;;;;;;;;;;;16.52;35.94;99636.81;105795;1256;61788;-76
2023/04/24 07:37:46;;;;;;;;;;;;;;;16.56;35.96;99640.73;105537;1261;76758;-78
2023/04/24 07:40:13;;;;;;;;;;;;;;;16.61;36.60;99639.84;105644;1262;70160;-79
2023/04/24 07:42:42;;;;;;;;;;;;;;;16.64;36.85;99637.19;105512;1263;73147;-79
2023/04/24 07:45:08;;;;;;;;;;;;;;;16.67;36.94;99638.35;105689;1261;60543;-79
2023/04/24 07:47:36;;;;;;;;;;;;;;;16.68;36.53;99633.82;105532;1256;62687;-74
2023/04/24 07:50:04;;;;;;;;;;;;;;;16.73;36.82;99630.45;105530;1256;76535;-77
2023/04/24 07:52:31;;;;;;;;;;;;;;;16.79;36.67;99634.75;105707;1256;69987;-77
2023/04/24 07:54:58;;;;;;;;;;;;;;;16.83;36.03;99636.23;105638;1257;71768;-78
2023/04/24 07:57:25;;;;;;;;;;;;;;;16.86;36.44;99634.77;105582;1256;63155;-74
2023/04/24 07:59:52;;;;;;;;;;;;;;;16.89;36.20;99639.08;105855;1255;62780;-76
2023/04/24 08:02:19;;;;;;;;;;;;;;;16.90;35.52;99637.92;105593;1254;75625;-77
2023/04/24 08:04:46;;;;;;;;;;;;;;;16.92;35.96;99636.87;105666;1257;70608;-75
2023/04/24 08:07:14;;;;;;;;;;;;;;;16.94;35.94;99633.23;105702;1256;75523;-78
2023/04/24 08:09:41;;;;;;;;;;;;;;;16.97;36.06;99631.75;105561;1257;61852;-75
2023/04/24 08:12:08;;;;;;;;;;;;;;;17.02;36.29;99634.23;105555;1261;60919;-78
2023/04/24 08:14:37;;;;;;;;;;;;;;;17.07;36.63;99635.95;105574;1262;74557;-86
2023/04/24 08:17:06;;;;;;;;;;;;;;;17.12;36.75;99632.78;105738;1254;69493;-79
2023/04/24 08:19:33;;;;;;;;;;;;;;;17.18;36.96;99635.80;105467;1260;74265;-77
2023/04/24 08:29:46;;;;;;;;;;;;;;;17.40;35.86;99629.05;102787;1293;599343;-83
2023/04/24 08:32:13;;;;;;;;;;;;;;;17.40;35.32;99626.15;104909;1274;62026;-79
2023/04/24 08:34:40;;;;;;;;;;;;;;;17.42;35.34;99625.36;104918;1267;63316;-80
2023/04/24 08:37:07;;;;;;;;;;;;;;;17.44;35.52;99627.99;105068;1270;76123;-80
2023/04/24 08:39:37;;;;;;;;;;;;;;;17.47;35.79;99622.77;105041;1266;69653;-81
2023/04/24 08:42:10;;;;;;;;;;;;;;;17.50;35.77;99620.80;104554;1272;687031;-85
2023/04/24 08:44:38;;;;;;;;;;;;;;;17.52;35.20;99616.08;105416;1263;62660;-80
2023/04/24 08:47:07;;;;;;;;;;;;;;;17.57;35.35;99613.27;105103;1263;61727;-82
2023/04/24 08:49:35;;;;;;;;;;;;;;;17.62;34.99;99608.27;106377;1258;71451;-86
2023/04/24 08:52:06;;;;;;;;;;;;;;;17.71;35.00;99604.07;105910;1259;69126;-81
2023/04/24 08:54:34;;;;;;;;;;;;;;;17.84;34.59;99597.38;105951;1256;75308;-78
2023/04/24 08:57:01;;;;;;;;;;;;;;;18.00;33.58;99590.83;105788;1255;63138;-81
2023/04/24 08:59:30;;;;;;;;;;;;;;;18.16;32.97;99592.79;105931;1257;61441;-82
2023/04/24 09:01:57;;;;;;;;;;;;;;;18.31;32.45;99592.27;105978;1258;73809;-79
2023/04/24 09:04:25;;;;;;;;;;;;;;;18.44;32.03;99588.98;106021;1253;67582;-82
2023/04/24 09:06:55;;;;;;;;;;;;;;;18.53;31.33;99586.45;105867;1258;72347;-78
2023/04/24 09:09:22;;;;;;;;;;;;;;;18.54;31.45;99583.23;105995;1258;62677;-79
2023/04/24 09:11:50;;;;;;;;;;;;;;;18.59;31.88;99582.08;105848;1258;61033;-75
2023/04/24 09:14:17;;;;;;;;;;;;;;;18.68;32.09;99575.20;106006;1252;75329;-73
2023/04/24 09:16:43;;;;;;;;;;;;;;;18.77;32.36;99576.08;105847;1257;67738;-77
2023/04/24 09:19:27;;;;;;;;;;;;;;;18.83;32.45;99573.17;102754;1295;599449;-75
2023/04/24 09:21:54;;;;;;;;;;;;;;;18.83;32.59;99564.29;104956;1267;59354;-75
2023/04/24 09:24:24;;;;;;;;;;;;;;;18.90;32.72;99563.46;105025;1272;62581;-78
2023/04/24 09:27:06;;;;;;;;;;;;;;;19.02;32.23;99565.36;104793;1269;73903;-76
2023/04/24 09:29:36;;;;;;;;;;;;;;;19.09;31.32;99563.99;105023;1280;69346;-76
2023/04/24 09:32:22;;;;;;;;;;;;;;;19.09;30.69;99560.95;104466;1269;677931;-77
2023/04/24 09:34:50;;;;;;;;;;;;;;;19.06;30.79;99555.19;105079;1269;60297;-77
2023/04/24 09:37:29;;;;;;;;;;;;;;;19.05;30.25;99554.12;105117;1267;62247;-77
2023/04/24 09:40:26;;;;;;;;;;;;;;;19.01;30.10;99552.13;104901;1273;74922;-78
2023/04/24 09:43:13;;;;;;;;;;;;;;;19.05;30.33;99552.27;104825;1267;69848;-75
2023/04/24 09:45:40;;;;;;;;;;;;;;;19.11;29.99;99550.95;104733;1270;74373;-77
2023/04/24 09:48:10;;;;;;;;;;;;;;;19.14;29.61;99551.40;105433;1265;63193;-74
2023/04/24 09:50:39;;;;;;;;;;;;;;;19.13;29.55;99551.46;105457;1262;62283;-75
2023/04/24 09:53:08;;;;;;;;;;;;;;;19.18;29.33;99552.70;105216;1261;73511;-76
2023/04/24 09:55:38;;;;;;;;;;;;;;;19.24;29.39;99549.14;105430;1266;68112;-81
2023/04/24 09:58:06;;;;;;;;;;;;;;;19.30;29.10;99545.16;105382;1260;74552;-75
2023/04/24 10:00:40;;;;;;;;;;;;;;;19.33;28.93;99547.50;105275;1269;62739;-76
2023/04/24 10:03:07;;;;;;;;;;;;;;;19.30;29.25;99548.18;105292;1265;61552;-76
2023/04/24 10:05:36;;;;;;;;;;;;;;;19.24;30.02;99545.38;105375;1261;75656;-76
2023/04/24 10:08:04;;;;;;;;;;;;;;;19.18;30.45;99544.05;105393;1261;69179;-74
2023/04/24 10:10:31;;;;;;;;;;;;;;;19.04;30.79;99538.20;105374;1261;75187;-78
2023/04/24 10:12:59;;;;;;;;;;;;;;;18.91;31.14;99546.54;105303;1267;60983;-76
2023/04/24 10:15:26;;;;;;;;;;;;;;;18.85;31.51;99546.20;105441;1264;61406;-75
2023/04/24 10:17:53;;;;;;;;;;;;;;;18.84;31.66;99539.47;106321;1258;75952;-75
2023/04/24 10:20:22;;;;;;;;;;;;;;;18.82;31.81;99535.63;105825;1254;70154;-74
2023/04/24 10:22:52;;;;;;;;;;;;;;;18.81;32.04;99533.10;105849;1257;74989;-76
2023/04/24 10:25:23;;;;;;;;;;;;;;;18.82;32.32;99530.02;105741;1255;60726;-77
2023/04/24 10:27:50;;;;;;;;;;;;;;;18.94;32.50;99527.55;105660;1254;62847;-78
2023/04/24 10:30:17;;;;;;;;;;;;;;;19.06;32.79;99519.79;105814;1267;75520;-77
2023/04/24 10:32:44;;;;;;;;;;;;;;;19.17;32.92;99519.10;105572;1261;69217;-77
2023/04/24 10:35:12;;;;;;;;;;;;;;;19.32;33.03;99516.81;105901;1254;72725;-77
2023/04/24 10:37:43;;;;;;;;;;;;;;;19.51;32.21;99511.20;105764;1254;62732;-76
2023/04/24 10:40:10;;;;;;;;;;;;;;;19.63;31.76;99508.86;105656;1260;62442;-75
2023/04/24 10:42:41;;;;;;;;;;;;;;;19.71;31.40;99507.89;105771;1260;76077;-76
2023/04/24 10:45:16;;;;;;;;;;;;;;;19.68;31.08;99502.56;105600;1257;70051;-75
2023/04/24 10:47:50;;;;;;;;;;;;;;;19.64;31.26;99508.20;105729;1261;75142;-74
2023/04/24 10:50:17;;;;;;;;;;;;;;;19.56;31.17;99509.50;105575;1256;60542;-75
2023/04/24 10:52:45;;;;;;;;;;;;;;;19.46;31.08;99513.07;105793;1258;59596;-78
2023/04/24 10:55:13;;;;;;;;;;;;;;;19.36;31.01;99515.77;105659;1261;75307;-78
2023/04/24 10:57:40;;;;;;;;;;;;;;;19.26;29.96;99513.09;105872;1256;70985;-76
2023/04/24 11:00:28;;;;;;;;;;;;;;;19.21;30.10;99509.62;106013;1257;75528;-78
2023/04/24 11:02:56;;;;;;;;;;;;;;;19.16;31.15;99509.45;105922;1255;60796;-73
2023/04/24 11:05:44;;;;;;;;;;;;;;;19.14;32.12;99507.27;105899;1260;59815;-73
2023/04/24 11:08:11;;;;;;;;;;;;;;;19.19;32.16;99502.74;105885;1254;74117;-77
2023/04/24 11:10:45;;;;;;;;;;;;;;;19.24;32.48;99500.91;105876;1260;68191;-78
2023/04/24 11:13:16;;;;;;;;;;;;;;;19.30;32.59;99502.23;105838;1254;73344;-73
2023/04/24 11:15:43;;;;;;;;;;;;;;;19.37;32.05;99501.02;105976;1254;63615;-73
2023/04/24 11:18:14;;;;;;;;;;;;;;;19.42;31.92;99493.10;105842;1254;62275;-72
2023/04/24 11:20:42;;;;;;;;;;;;;;;19.53;32.40;99488.30;105670;1254;75393;-74
2023/04/24 11:23:08;;;;;;;;;;;;;;;19.68;33.06;99484.38;105767;1255;70258;-78
2023/04/24 11:25:35;;;;;;;;;;;;;;;19.88;32.83;99487.61;105897;1257;71876;-75
2023/04/24 11:28:03;;;;;;;;;;;;;;;20.02;32.32;99486.44;105901;1254;63128;-75
2023/04/24 11:30:29;;;;;;;;;;;;;;;20.09;32.48;99484.90;105839;1259;60041;-75
2023/04/24 11:33:01;;;;;;;;;;;;;;;20.12;32.13;99488.85;106064;1254;74986;-77
2023/04/24 11:35:30;;;;;;;;;;;;;;;20.17;31.57;99492.52;105941;1254;70312;-76
2023/04/24 11:37:58;;;;;;;;;;;;;;;20.21;31.07;99494.58;105961;1254;75054;-74
2023/04/24 11:40:28;;;;;;;;;;;;;;;20.21;30.97;99495.87;105947;1254;62674;-74
2023/04/24 11:42:55;;;;;;;;;;;;;;;20.20;30.82;99497.81;105990;1257;59638;-72
2023/04/24 11:45:26;;;;;;;;;;;;;;;20.12;30.70;99495.48;106204;1254;75488;-73
2023/04/24 11:47:53;;;;;;;;;;;;;;;20.02;31.08;99494.14;106092;1254;67127;-72
2023/04/24 11:50:25;;;;;;;;;;;;;;;19.91;31.14;99497.52;105947;1257;72682;-74
2023/04/24 11:52:52;;;;;;;;;;;;;;;19.77;31.35;99491.20;105933;1253;60561;-74
2023/04/24 11:55:19;;;;;;;;;;;;;;;19.71;31.43;99492.72;105791;1254;61405;-74
2023/04/24 11:57:52;;;;;;;;;;;;;;;19.65;31.77;99489.13;106090;1257;76187;-80
2023/04/24 12:00:26;;;;;;;;;;;;;;;19.56;31.30;99489.25;105964;1254;70709;-79
2023/04/24 12:03:03;;;;;;;;;;;;;;;19.49;31.32;99487.58;106080;1254;73795;-78
2023/04/24 12:05:31;;;;;;;;;;;;;;;19.45;31.59;99487.02;105872;1258;61923;-78
2023/04/24 12:07:58;;;;;;;;;;;;;;;19.39;32.10;99484.86;106473;1259;62470;-73
2023/04/24 12:10:27;;;;;;;;;;;;;;;19.43;32.08;99476.89;106007;1254;74000;-74
2023/04/24 12:12:55;;;;;;;;;;;;;;;19.53;31.89;99477.98;105920;1252;70884;-72
2023/04/24 12:15:22;;;;;;;;;;;;;;;19.60;31.92;99475.72;105970;1257;73531;-73
2023/04/24 12:17:50;;;;;;;;;;;;;;;19.69;31.73;99472.74;105807;1254;61720;-74
2023/04/24 12:20:17;;;;;;;;;;;;;;;19.77;31.78;99469.21;105936;1259;60774;-75
2023/04/24 12:22:48;;;;;;;;;;;;;;;19.84;31.81;99473.89;109030;1254;75063;-73
2023/04/24 12:25:16;;;;;;;;;;;;;;;19.90;32.10;99467.13;109458;1253;69918;-74
2023/04/24 12:27:45;;;;;;;;;;;;;;;20.09;31.52;99470.79;109267;1253;71838;-71
2023/04/24 12:30:15;;;;;;;;;;;;;;;20.27;31.41;99460.32;109349;1252;61572;-70
2023/04/24 12:32:46;;;;;;;;;;;;;;;20.51;31.07;99461.63;109227;1254;58847;-71
2023/04/24 12:35:14;;;;;;;;;;;;;;;20.77;30.38;99458.42;109263;1254;72977;-77
2023/04/24 12:37:42;;;;;;;;;;;;;;;20.98;30.20;99459.34;109445;1253;66709;-77
2023/04/24 12:40:13;;;;;;;;;;;;;;;21.11;29.83;99461.19;109515;1251;75006;-76
2023/04/24 12:42:43;;;;;;;;;;;;;;;21.12;29.40;99455.65;109347;1253;62265;-78
2023/04/24 12:45:12;;;;;;;;;;;;;;;21.01;29.12;99453.13;109397;1252;62203;-78
2023/04/24 12:47:39;;;;;;;;;;;;;;;21.04;29.09;99454.50;109394;1252;74928;-77
2023/04/24 12:50:07;;;;;;;;;;;;;;;21.00;29.06;99451.67;109341;1252;68414;-77
2023/04/24 12:52:34;;;;;;;;;;;;;;;20.88;29.47;99448.28;109356;1253;73527;-79
2023/04/24 12:55:00;;;;;;;;;;;;;;;20.68;29.50;99454.57;109344;1253;61150;-78
2023/04/24 12:57:28;;;;;;;;;;;;;;;20.40;29.58;99449.62;109377;1253;60649;-82
2023/04/24 12:59:58;;;;;;;;;;;;;;;20.13;29.70;99447.27;109432;1254;72121;-79
2023/04/24 13:02:25;;;;;;;;;;;;;;;19.81;29.96;99449.33;109426;1253;67287;-81